createdAt,value
2019-04-10T00:00:53.003Z,99867.45
2019-04-10T00:03:27.894Z,99857.58
2019-04-10T00:05:52.092Z,99862.72
2019-04-10T00:08:20.618Z,99856.39
2019-04-10T00:10:49.058Z,99860.81
2019-04-10T00:13:18.461Z,99860.99
2019-04-10T00:15:46.852Z,99862.03
2019-04-10T00:18:15.897Z,99859.30
2019-04-10T00:20:44.887Z,99862.22
2019-04-10T00:23:13.347Z,99860.53
2019-04-10T00:25:41.779Z,99861.03
2019-04-10T00:28:10.215Z,99864.80
2019-04-10T00:30:38.728Z,99861.53
2019-04-10T00:33:08.215Z,99865.81
2019-04-10T00:35:37.213Z,99864.98
2019-04-10T00:38:05.733Z,99869.59
2019-04-10T00:40:35.077Z,99861.39
2019-04-10T00:43:03.623Z,99871.45
2019-04-10T00:45:32.115Z,99870.27
2019-04-10T00:48:01.605Z,99875.73
2019-04-10T00:50:30.731Z,99875.41
2019-04-10T00:52:59.195Z,99878.64
2019-04-10T00:55:28.638Z,99874.23
2019-04-10T00:57:58.097Z,99872.86
2019-04-10T01:00:26.672Z,99874.55
2019-04-10T01:02:55.115Z,99874.05
2019-04-10T01:05:23.533Z,99865.17
2019-04-10T01:07:52.045Z,99866.03
2019-04-10T01:10:20.593Z,99869.80
2019-04-10T01:12:49.159Z,99867.08
2019-04-10T01:15:18.372Z,99865.36
2019-04-10T01:17:46.841Z,99863.99
2019-04-10T01:20:15.636Z,99857.70
2019-04-10T01:22:44.145Z,99861.26
2019-04-10T01:25:12.697Z,99861.80
2019-04-10T01:27:41.227Z,99858.71
2019-04-10T01:30:10.546Z,99860.08
2019-04-10T01:32:39.794Z,99860.94
2019-04-10T01:35:09.821Z,99860.58
2019-04-10T01:37:48.610Z,99866.91
2019-04-10T01:40:08.899Z,99862.81
2019-04-10T01:42:37.339Z,99862.81
2019-04-10T01:45:07.287Z,99859.58
2019-04-10T01:47:35.741Z,99858.39
2019-04-10T01:50:04.616Z,99852.92
2019-04-10T01:52:33.282Z,99851.20
2019-04-10T01:55:03.304Z,99853.94
2019-04-10T01:57:32.475Z,99854.12
2019-04-10T02:00:01.001Z,99851.39
2019-04-10T02:02:31.608Z,99851.06
2019-04-10T02:05:00.649Z,99849.20
2019-04-10T02:07:29.959Z,99849.20
2019-04-10T02:09:59.453Z,99852.94
2019-04-10T02:12:28.426Z,99852.61
2019-04-10T02:14:56.939Z,99849.88
2019-04-10T02:17:25.456Z,99849.37
2019-04-10T02:19:54.533Z,99852.11
2019-04-10T02:22:23.023Z,99850.53
2019-04-10T02:24:51.530Z,99848.52
2019-04-10T02:27:20.417Z,99847.80
2019-04-10T02:29:48.844Z,99845.61
2019-04-10T02:32:18.895Z,99845.08
2019-04-10T02:34:49.120Z,99845.08
2019-04-10T02:37:19.116Z,99847.16
2019-04-10T02:39:52.008Z,99847.48
2019-04-10T02:42:18.688Z,99854.63
2019-04-10T02:44:48.359Z,99853.27
2019-04-10T02:47:19.045Z,99853.80
2019-04-10T02:49:49.186Z,99847.98
2019-04-10T02:52:17.683Z,99847.34
2019-04-10T02:54:46.177Z,99848.52
2019-04-10T02:57:14.645Z,99852.26
2019-04-10T02:59:43.272Z,99849.53
2019-04-10T03:02:11.827Z,99849.20
2019-04-10T03:04:40.593Z,99852.26
2019-04-10T03:07:09.531Z,99849.70
2019-04-10T03:09:53.278Z,99847.84
2019-04-10T03:12:08.962Z,99849.20
2019-04-10T03:14:39.248Z,99852.97
2019-04-10T03:17:08.565Z,99853.80
2019-04-10T03:19:37.921Z,99850.25
2019-04-10T03:22:07.909Z,99854.34
2019-04-10T03:24:36.713Z,99852.97
2019-04-10T03:27:05.840Z,99846.66
2019-04-10T03:29:34.431Z,99847.70
2019-04-10T03:32:22.799Z,99853.98
2019-04-10T03:34:53.775Z,99852.12
2019-04-10T03:37:24.373Z,99846.84
2019-04-10T03:39:53.203Z,99847.87
2019-04-10T03:42:21.715Z,99847.02
2019-04-10T03:44:50.154Z,99846.52
2019-04-10T03:47:19.603Z,99844.79
2019-04-10T03:49:48.160Z,99850.25
2019-04-10T03:52:16.889Z,99849.56
2019-04-10T03:54:46.061Z,99847.34
2019-04-10T03:57:14.544Z,99849.24
2019-04-10T03:59:42.961Z,99856.06
2019-04-10T04:02:11.663Z,99853.34
2019-04-10T04:04:40.230Z,99853.34
2019-04-10T04:07:09.150Z,99856.57
2019-04-10T04:09:37.811Z,99855.70
2019-04-10T04:12:06.385Z,99852.66
2019-04-10T04:14:34.875Z,99846.66
2019-04-10T04:17:04.028Z,99855.20
2019-04-10T04:19:32.531Z,99854.53
2019-04-10T04:22:00.990Z,99852.98
2019-04-10T04:24:29.398Z,99852.98
2019-04-10T04:26:57.806Z,99859.98
2019-04-10T04:29:26.888Z,99862.72
2019-04-10T04:31:55.430Z,99861.85
2019-04-10T04:34:24.950Z,99858.30
2019-04-10T04:36:53.621Z,99858.30
2019-04-10T04:39:26.780Z,99863.22
2019-04-10T04:41:52.244Z,99856.93
2019-04-10T04:44:20.692Z,99856.07
2019-04-10T04:46:49.112Z,99857.44
2019-04-10T04:49:18.185Z,99864.44
2019-04-10T04:51:46.647Z,99869.39
2019-04-10T04:54:15.117Z,99869.39
2019-04-10T04:56:44.236Z,99872.80
2019-04-10T04:59:12.718Z,99875.35
2019-04-10T05:01:41.182Z,99877.22
2019-04-10T05:04:09.622Z,99882.69
2019-04-10T05:06:38.097Z,99881.31
2019-04-10T05:09:07.344Z,99886.77
2019-04-10T05:11:36.394Z,99889.86
2019-04-10T05:14:05.015Z,99893.27
2019-04-10T05:16:33.459Z,99901.97
2019-04-10T05:19:01.893Z,99902.33
2019-04-10T05:21:30.334Z,99906.92
2019-04-10T05:23:59.664Z,99904.88
2019-04-10T05:26:28.161Z,99907.24
2019-04-10T05:28:57.087Z,99908.78
2019-04-10T05:31:25.639Z,99910.69
2019-04-10T05:33:54.044Z,99915.11
2019-04-10T05:36:23.517Z,99918.34
2019-04-10T05:38:52.565Z,99922.97
2019-04-10T05:41:21.874Z,99928.42
2019-04-10T05:43:51.385Z,99922.97
2019-04-10T05:46:21.454Z,99924.66
2019-04-10T05:48:50.527Z,99927.39
2019-04-10T05:51:19.236Z,99929.08
2019-04-10T05:53:49.902Z,99929.94
2019-04-10T05:56:19.069Z,99933.53
2019-04-10T05:58:47.654Z,99933.53
2019-04-10T06:01:16.161Z,99935.91
2019-04-10T06:03:45.591Z,99930.80
2019-04-10T06:06:14.560Z,99932.67
2019-04-10T06:08:43.540Z,99935.72
2019-04-10T06:11:13.566Z,99930.27
2019-04-10T06:13:42.981Z,99933.85
2019-04-10T06:16:11.883Z,99938.28
2019-04-10T06:18:40.422Z,99937.59
2019-04-10T06:21:08.861Z,99933.50
2019-04-10T06:23:37.282Z,99942.38
2019-04-10T06:26:06.882Z,99939.79
2019-04-10T06:28:35.448Z,99935.19
2019-04-10T06:31:04.135Z,99936.88
2019-04-10T06:33:33.902Z,99935.34
2019-04-10T06:36:02.868Z,99929.88
2019-04-10T06:38:31.429Z,99938.75
2019-04-10T06:41:00.000Z,99928.73
2019-04-10T06:43:28.791Z,99932.11
2019-04-10T06:45:57.942Z,99931.42
2019-04-10T06:48:27.795Z,99938.39
2019-04-10T06:50:56.333Z,99934.98
2019-04-10T06:53:24.873Z,99942.31
2019-04-10T06:55:54.361Z,99946.55
2019-04-10T06:58:23.711Z,99948.27
2019-04-10T07:00:53.850Z,99951.14
2019-04-10T07:03:23.129Z,99952.83
2019-04-10T07:06:02.435Z,99955.56
2019-04-10T07:08:24.403Z,99953.52
2019-04-10T07:11:01.988Z,99964.77
2019-04-10T07:13:23.956Z,99961.34
2019-04-10T07:15:57.322Z,99964.41
2019-04-10T07:18:22.538Z,99962.36
2019-04-10T07:20:50.976Z,99961.34
2019-04-10T07:23:25.887Z,99958.58
2019-04-10T07:25:49.941Z,99965.38
2019-04-10T07:28:19.510Z,99968.61
2019-04-10T07:30:47.998Z,99969.28
2019-04-10T07:33:18.066Z,99972.33
2019-04-10T07:35:46.587Z,99974.34
2019-04-10T07:38:15.970Z,99974.81
2019-04-10T07:40:44.953Z,99976.99
2019-04-10T07:43:13.491Z,99980.58
2019-04-10T07:45:41.981Z,99980.50
2019-04-10T07:48:10.714Z,99980.11
2019-04-10T07:50:39.347Z,99982.05
2019-04-10T07:53:08.410Z,99983.50
2019-04-10T07:55:37.381Z,99983.44
2019-04-10T07:58:06.865Z,99988.34
2019-04-10T08:00:36.550Z,99987.28
2019-04-10T08:03:06.219Z,99982.48
2019-04-10T08:05:35.387Z,99984.85
2019-04-10T08:08:05.033Z,99993.52
2019-04-10T08:10:34.839Z,99983.41
2019-04-10T08:13:04.417Z,99989.83
2019-04-10T08:15:33.636Z,99982.59
2019-04-10T08:18:02.591Z,99987.53
2019-04-10T08:20:31.229Z,99988.34
2019-04-10T08:22:59.652Z,99989.65
2019-04-10T08:25:29.129Z,99993.86
2019-04-10T08:27:58.555Z,99991.92
2019-04-10T08:30:27.960Z,99999.57
2019-04-10T08:33:01.026Z,99996.08
2019-04-10T08:35:26.624Z,100002.16
2019-04-10T08:37:55.023Z,100007.80
2019-04-10T08:40:23.467Z,100006.05
2019-04-10T08:42:51.903Z,100009.48
2019-04-10T08:45:21.007Z,100008.88
2019-04-10T08:47:50.714Z,100011.13
2019-04-10T08:50:19.747Z,100007.78
2019-04-10T08:52:48.651Z,100016.24
2019-04-10T08:55:17.739Z,100010.80
2019-04-10T08:57:46.252Z,100012.41
2019-04-10T09:00:16.470Z,100012.78
2019-04-10T09:02:44.918Z,100018.58
2019-04-10T09:05:13.757Z,100016.34
2019-04-10T09:07:42.199Z,100013.42
2019-04-10T09:10:12.110Z,100010.50
2019-04-10T09:12:41.134Z,100014.77
2019-04-10T09:15:09.935Z,100012.53
2019-04-10T09:17:39.559Z,100012.67
2019-04-10T09:20:08.873Z,100011.30
2019-04-10T09:23:04.560Z,100017.98
2019-04-10T09:25:09.144Z,100018.62
2019-04-10T09:27:37.933Z,100020.98
2019-04-10T09:30:08.805Z,100014.57
2019-04-10T09:32:37.228Z,100018.02
2019-04-10T09:35:08.765Z,100019.41
2019-04-10T09:37:37.994Z,100014.66
2019-04-10T09:40:08.149Z,100019.69
2019-04-10T09:42:36.584Z,100018.80
2019-04-10T09:45:06.009Z,100023.77
2019-04-10T09:47:34.760Z,100029.05
2019-04-10T09:50:04.244Z,100025.54
2019-04-10T09:52:32.662Z,100026.05
2019-04-10T09:55:01.112Z,100032.23
2019-04-10T09:57:29.527Z,100020.64
2019-04-10T09:59:57.985Z,100025.06
2019-04-10T10:02:27.452Z,100021.02
2019-04-10T10:04:55.996Z,100021.83
2019-04-10T10:07:24.441Z,100023.26
2019-04-10T10:09:52.849Z,100021.44
2019-04-10T10:12:21.304Z,100017.70
2019-04-10T10:14:49.718Z,100019.50
2019-04-10T10:17:18.136Z,100023.70
2019-04-10T10:19:46.589Z,100014.03
2019-04-10T10:22:14.996Z,100017.43
2019-04-10T10:24:43.701Z,100021.27
2019-04-10T10:27:12.147Z,100006.17
2019-04-10T10:29:40.546Z,100016.45
2019-04-10T10:32:09.146Z,100012.84
2019-04-10T10:34:38.658Z,100010.64
2019-04-10T10:37:08.397Z,100013.30
2019-04-10T10:39:37.171Z,100004.86
2019-04-10T10:42:06.070Z,100018.77
2019-04-10T10:44:34.488Z,100013.34
2019-04-10T10:47:04.088Z,100018.40
2019-04-10T10:49:32.766Z,100020.23
2019-04-10T10:52:01.441Z,100016.37
2019-04-10T10:54:30.134Z,100014.84
2019-04-10T10:56:58.606Z,100016.17
2019-04-10T10:59:27.354Z,100018.88
2019-04-10T11:01:55.994Z,100019.33
2019-04-10T11:04:24.417Z,100019.37
2019-04-10T11:06:59.573Z,100022.15
2019-04-10T11:09:23.898Z,100018.86
2019-04-10T11:11:53.634Z,100011.99
2019-04-10T11:14:23.573Z,100016.97
2019-04-10T11:16:53.557Z,100021.70
2019-04-10T11:19:23.469Z,100021.44
2019-04-10T11:21:52.141Z,100018.58
2019-04-10T11:24:20.564Z,100022.41
2019-04-10T11:26:50.373Z,100021.23
2019-04-10T11:29:19.645Z,100022.57
2019-04-10T11:31:49.248Z,100024.91
2019-04-10T11:34:18.109Z,100020.63
2019-04-10T11:36:48.259Z,100016.94
2019-04-10T11:39:23.413Z,100019.41
2019-04-10T11:41:50.003Z,100019.68
2019-04-10T11:46:47.355Z,100024.36
2019-04-10T11:49:17.813Z,100031.58
2019-04-10T11:51:46.908Z,100036.25
2019-04-10T11:54:18.036Z,100038.66
2019-04-10T11:56:48.646Z,100046.47
2019-04-10T11:59:18.488Z,100040.22
2019-04-10T12:01:48.381Z,100050.66
2019-04-10T12:04:19.684Z,100049.44
2019-04-10T12:06:51.876Z,100052.30
2019-04-10T12:11:48.855Z,100054.15
2019-04-10T12:14:17.498Z,100056.77
2019-04-10T12:16:45.941Z,100047.86
2019-04-10T12:19:15.215Z,100053.94
2019-04-10T12:21:44.212Z,100058.58
2019-04-10T12:24:12.801Z,100057.09
2019-04-10T12:26:42.379Z,100062.73
2019-04-10T12:29:11.001Z,100070.91
2019-04-10T12:31:39.813Z,100065.09
2019-04-10T12:34:08.832Z,100068.52
2019-04-10T12:36:38.473Z,100068.30
2019-04-10T12:39:09.420Z,100070.09
2019-04-10T12:41:37.931Z,100070.73
2019-04-10T12:44:07.498Z,100069.17
2019-04-10T12:46:36.011Z,100062.34
2019-04-10T12:49:05.324Z,100066.84
2019-04-10T12:51:34.860Z,100069.48
2019-04-10T12:54:04.519Z,100068.14
2019-04-10T12:56:33.028Z,100073.87
2019-04-10T12:59:01.475Z,100074.41
2019-04-10T13:01:30.934Z,100076.34
2019-04-10T13:03:59.848Z,100073.66
2019-04-10T13:06:29.655Z,100076.09
2019-04-10T13:09:07.139Z,100073.92
2019-04-10T13:11:28.955Z,100067.13
2019-04-10T13:13:58.215Z,100068.69
2019-04-10T13:16:27.902Z,100069.06
2019-04-10T13:18:56.571Z,100066.52
2019-04-10T13:21:24.958Z,100067.53
2019-04-10T13:23:53.425Z,100065.34
2019-04-10T13:26:21.941Z,100065.84
2019-04-10T13:28:50.345Z,100067.88
2019-04-10T13:31:19.314Z,100062.05
2019-04-10T13:33:48.922Z,100061.23
2019-04-10T13:36:17.597Z,100058.48
2019-04-10T13:38:46.427Z,100065.84
2019-04-10T13:41:14.913Z,100067.39
2019-04-10T13:43:44.221Z,100068.95
2019-04-10T13:46:12.999Z,100066.91
2019-04-10T13:48:41.769Z,100056.15
2019-04-10T13:51:10.952Z,100057.89
2019-04-10T13:53:39.871Z,100055.34
2019-04-10T13:56:08.704Z,100060.49
2019-04-10T13:58:37.249Z,100058.13
2019-04-10T14:01:09.363Z,100052.84
2019-04-10T14:03:40.076Z,100055.39
2019-04-10T14:06:07.945Z,100055.04
2019-04-10T14:08:56.107Z,100057.78
2019-04-10T14:11:06.543Z,100056.77
2019-04-10T14:13:35.852Z,100062.88
2019-04-10T14:16:05.037Z,100056.70
2019-04-10T14:18:33.481Z,100053.28
2019-04-10T14:21:07.094Z,100054.64
2019-04-10T14:23:33.258Z,100056.02
2019-04-10T14:26:22.492Z,100052.92
2019-04-10T14:28:51.435Z,100055.34
2019-04-10T14:31:21.611Z,100051.92
2019-04-10T14:33:50.980Z,100052.66
2019-04-10T14:36:20.834Z,100046.83
2019-04-10T14:38:49.529Z,100050.61
2019-04-10T14:41:18.175Z,100055.22
2019-04-10T14:43:46.758Z,100052.67
2019-04-10T14:46:15.200Z,100051.66
2019-04-10T14:48:44.675Z,100050.80
2019-04-10T14:51:14.272Z,100054.05
2019-04-10T14:53:43.594Z,100054.40
2019-04-10T14:56:12.264Z,100053.03
2019-04-10T14:58:40.758Z,100053.03
2019-04-10T15:01:09.933Z,100049.94
2019-04-10T15:03:38.373Z,100051.49
2019-04-10T15:06:07.255Z,100048.44
2019-04-10T15:08:35.734Z,100051.67
2019-04-10T15:11:04.579Z,100052.22
2019-04-10T15:13:33.914Z,100048.62
2019-04-10T15:16:03.001Z,100049.98
2019-04-10T15:18:31.515Z,100046.07
2019-04-10T15:21:00.677Z,100046.58
2019-04-10T15:23:29.630Z,100053.74
2019-04-10T15:25:58.127Z,100053.42
2019-04-10T15:28:27.455Z,100052.55
2019-04-10T15:30:57.114Z,100053.76
2019-04-10T15:33:26.521Z,100057.55
2019-04-10T15:35:55.455Z,100056.68
2019-04-10T15:38:24.154Z,100056.86
2019-04-10T15:40:52.658Z,100045.24
2019-04-10T15:43:23.575Z,100047.16
2019-04-10T15:45:52.321Z,100054.50
2019-04-10T15:48:21.138Z,100051.44
2019-04-10T15:50:49.886Z,100048.70
2019-04-10T15:53:18.653Z,100042.56
2019-04-10T15:55:47.596Z,100042.88
2019-04-10T15:58:17.203Z,100047.71
2019-04-10T16:00:45.912Z,100046.52
2019-04-10T16:03:15.372Z,100047.22
2019-04-10T16:05:43.994Z,100052.69
2019-04-10T16:08:14.221Z,100051.16
2019-04-10T16:10:46.221Z,100050.83
2019-04-10T16:13:16.495Z,100052.38
2019-04-10T16:15:45.333Z,100062.14
2019-04-10T16:18:15.658Z,100067.29
2019-04-10T16:20:45.459Z,100062.51
2019-04-10T16:23:29.034Z,100062.19
2019-04-10T16:25:58.650Z,100065.43
2019-04-10T16:28:27.178Z,100068.53
2019-04-10T16:30:55.785Z,100074.00
2019-04-10T16:33:25.309Z,100075.05
2019-04-10T16:35:54.726Z,100070.08
2019-04-10T16:38:23.289Z,100076.06
2019-04-10T16:40:52.164Z,100075.23
2019-04-10T16:43:20.794Z,100078.66
2019-04-10T16:45:49.204Z,100084.48
2019-04-10T16:48:18.907Z,100078.66
2019-04-10T16:50:47.755Z,100081.58
2019-04-10T16:53:16.350Z,100086.91
2019-04-10T16:55:45.060Z,100088.78
2019-04-10T16:58:13.776Z,100082.85
2019-04-10T17:00:42.204Z,100085.77
2019-04-10T17:03:11.602Z,100084.91
2019-04-10T17:05:41.759Z,100091.60
2019-04-10T17:08:10.323Z,100093.12
2019-04-10T17:10:38.824Z,100093.30
2019-04-10T17:13:08.811Z,100096.21
2019-04-10T17:15:37.410Z,100097.94
2019-04-10T17:18:06.627Z,100095.57
2019-04-10T17:20:36.205Z,100100.39
2019-04-10T17:23:06.371Z,100102.77
2019-04-10T17:25:35.952Z,100100.21
2019-04-10T17:28:05.143Z,100112.88
2019-04-10T17:30:33.850Z,100114.78
2019-04-10T17:33:02.840Z,100114.09
2019-04-10T17:35:31.705Z,100119.38
2019-04-10T17:38:00.324Z,100122.12
2019-04-10T17:40:35.452Z,100123.81
2019-04-10T17:45:29.071Z,100132.55
2019-04-10T17:47:58.001Z,100135.64
2019-04-10T17:50:27.858Z,100140.75
2019-04-10T17:52:56.848Z,100140.92
2019-04-10T17:55:25.426Z,100148.47
2019-04-10T17:57:56.156Z,100148.29
2019-04-10T18:00:27.158Z,100152.39
2019-04-10T18:02:57.063Z,100158.54
2019-04-10T18:05:26.607Z,100159.25
2019-04-10T18:07:55.118Z,100165.73
2019-04-10T18:10:24.689Z,100162.67
2019-04-10T18:12:53.460Z,100174.28
2019-04-10T18:15:24.029Z,100181.28
2019-04-10T18:17:53.440Z,100178.22
2019-04-10T18:20:22.085Z,100189.33
2019-04-10T18:22:51.839Z,100189.69
2019-04-10T18:25:20.462Z,100192.41
2019-04-10T18:27:49.174Z,100192.09
2019-04-10T18:30:18.123Z,100198.73
2019-04-10T18:32:47.593Z,100202.33
2019-04-10T18:35:16.445Z,100204.55
2019-04-10T18:37:44.974Z,100210.52
2019-04-10T18:40:13.396Z,100217.88
2019-04-10T18:42:41.812Z,100218.39
2019-04-10T18:45:11.252Z,100219.42
2019-04-10T18:47:39.823Z,100229.98
2019-04-10T18:50:09.862Z,100230.70
2019-04-10T18:52:39.310Z,100238.03
2019-04-10T18:55:08.115Z,100245.36
2019-04-10T18:57:36.542Z,100243.34
2019-04-10T19:00:10.133Z,100252.54
2019-04-10T19:02:49.324Z,100252.20
2019-04-10T19:05:19.491Z,100263.31
2019-04-10T19:07:48.232Z,100258.02
2019-04-10T19:10:17.838Z,100260.92
2019-04-10T19:12:46.288Z,100269.29
2019-04-10T19:15:14.984Z,100267.06
2019-04-10T19:17:43.532Z,100267.23
2019-04-10T19:20:12.177Z,100272.37
2019-04-10T19:22:40.592Z,100281.92
2019-04-10T19:25:10.514Z,100280.56
2019-04-10T19:27:40.142Z,100276.46
2019-04-10T19:30:11.038Z,100280.73
2019-04-10T19:32:39.607Z,100289.92
2019-04-10T19:35:08.147Z,100290.80
2019-04-10T19:37:36.878Z,100286.87
2019-04-10T19:40:09.130Z,100293.37
2019-04-10T19:42:37.734Z,100292.50
2019-04-10T19:45:07.850Z,100288.91
2019-04-10T19:47:36.749Z,100295.58
2019-04-10T19:50:05.596Z,100296.94
2019-04-10T19:52:34.030Z,100302.41
2019-04-10T19:55:03.277Z,100297.44
2019-04-10T19:57:31.728Z,100300.17
2019-04-10T20:00:00.180Z,100299.84
2019-04-10T20:02:28.918Z,100305.81
2019-04-10T20:04:57.460Z,100308.53
2019-04-10T20:07:27.004Z,100307.17
2019-04-10T20:09:56.890Z,100309.57
2019-04-10T20:12:26.658Z,100315.03
2019-04-10T20:14:55.365Z,100315.20
2019-04-10T20:17:24.080Z,100318.44
2019-04-10T20:19:55.146Z,100322.53
2019-04-10T20:22:23.065Z,100317.60
2019-04-10T20:24:51.907Z,100325.27
2019-04-10T20:27:20.393Z,100319.14
2019-04-10T20:29:48.855Z,100325.97
2019-04-10T20:32:17.661Z,100328.70
2019-04-10T20:34:46.143Z,100332.80
2019-04-10T20:37:14.647Z,100332.09
2019-04-10T20:39:43.246Z,100332.93
2019-04-10T20:42:11.900Z,100330.73
2019-04-10T20:44:40.867Z,100331.41
2019-04-10T20:47:09.374Z,100335.17
2019-04-10T20:49:38.452Z,100329.88
2019-04-10T20:52:06.916Z,100345.39
2019-04-10T20:54:35.349Z,100346.76
2019-04-10T20:57:04.967Z,100343.70
2019-04-10T20:59:34.972Z,100349.16
2019-04-10T21:02:04.185Z,100349.98
2019-04-10T21:04:33.761Z,100354.08
2019-04-10T21:07:02.901Z,100356.81
2019-04-10T21:09:32.093Z,100363.27
2019-04-10T21:12:06.770Z,100362.08
2019-04-10T21:14:31.753Z,100363.11
2019-04-10T21:17:00.485Z,100362.75
2019-04-10T21:19:29.091Z,100364.28
2019-04-10T21:21:57.596Z,100366.17
2019-04-10T21:24:26.009Z,100365.31
2019-04-10T21:26:54.855Z,100369.91
2019-04-10T21:29:25.535Z,100369.08
2019-04-10T21:32:03.099Z,100377.44
2019-04-10T21:34:33.302Z,100376.73
2019-04-10T21:37:01.898Z,100384.39
2019-04-10T21:39:30.291Z,100379.63
2019-04-10T21:42:10.204Z,100388.66
2019-04-10T21:44:29.046Z,100398.21
2019-04-10T21:46:57.464Z,100393.28
2019-04-10T21:49:26.198Z,100398.05
2019-04-10T21:51:55.717Z,100397.55
2019-04-10T21:54:24.755Z,100402.64
2019-04-10T21:56:53.522Z,100407.27
2019-04-10T21:59:22.656Z,100407.10
2019-04-10T22:01:51.392Z,100404.87
2019-04-10T22:04:21.014Z,100409.47
2019-04-10T22:07:07.699Z,100410.16
2019-04-10T22:09:56.102Z,100409.47
2019-04-10T22:12:31.186Z,100415.95
2019-04-10T22:14:56.090Z,100415.09
2019-04-10T22:17:25.446Z,100414.59
2019-04-10T22:19:54.999Z,100412.52
2019-04-10T22:22:23.525Z,100419.52
2019-04-10T22:24:51.929Z,100424.47
2019-04-10T22:27:20.457Z,100418.16
2019-04-10T22:29:48.870Z,100413.89
2019-04-10T22:32:18.543Z,100415.75
2019-04-10T22:34:47.083Z,100425.80
2019-04-10T22:37:16.939Z,100424.97
2019-04-10T22:39:45.669Z,100415.42
2019-04-10T22:42:16.083Z,100418.65
2019-04-10T22:44:46.473Z,100418.65
2019-04-10T22:47:14.809Z,100425.97
2019-04-10T22:49:43.265Z,100430.56
2019-04-10T22:52:11.762Z,100427.34
2019-04-10T22:54:40.213Z,100431.59
2019-04-10T22:57:08.659Z,100438.41
2019-04-10T22:59:38.190Z,100430.73
2019-04-10T23:02:11.542Z,100434.48
2019-04-10T23:04:37.044Z,100434.48
2019-04-10T23:07:05.997Z,100438.74
2019-04-10T23:09:34.452Z,100438.41
2019-04-10T23:12:02.857Z,100439.41
2019-04-10T23:14:31.301Z,100448.62
2019-04-10T23:17:00.142Z,100451.85
2019-04-10T23:19:28.912Z,100455.95
2019-04-10T23:21:58.355Z,100462.44
2019-04-10T23:24:27.724Z,100462.93
2019-04-10T23:26:57.508Z,100471.12
2019-04-10T23:29:26.378Z,100465.33
2019-04-10T23:31:55.917Z,100478.63
2019-04-10T23:34:25.118Z,100481.86
2019-04-10T23:36:54.068Z,100478.80
2019-04-10T23:39:22.599Z,100487.48
2019-04-10T23:41:52.440Z,100492.60
2019-04-10T23:44:20.960Z,100495.49
2019-04-10T23:46:49.535Z,100498.72
2019-04-10T23:49:18.001Z,100500.08
2019-04-10T23:51:47.424Z,100501.61
2019-04-10T23:54:15.937Z,100499.75
2019-04-10T23:56:46.594Z,100502.61
2019-04-10T23:59:14.949Z,100504.84
